메인 페이지
METAR-TAF:

METAR-TAF

공항 :

킹스턴, 자메이카

위도: 17-56N, 경도: 076-47W, 고도: 3m

현재 날씨관측

예보는 1 시간 6분 전, 05:00시(UTC)에 발표되었습니다.
북서6kt
온도 29°C
습도 79%
기압 1016 hPa
시정 10km 이상
고도 2200ft 상공 구름 조금

METAR: MKJP 170500Z 32006KT 9999 FEW022 29/25 Q1016

시각: 01:06 (06:06 UTC)

예보

예보는 51분 전, 05:15시(UTC)에 발표되었습니다.
예보 대상 시간: 17일 06시부터 18일 06시까지 (UTC)
7kt
시정 10km 이상
고도 2200ft 상공 구름 조금
전환 중
17일 14시부터 17일 16시까지 (UTC)
남동20kt
고도 2200ft 상공 구름 보통
확률 40% :
일시적
17일 18시부터 17일 22시까지 (UTC)
고도 2000ft 상공 구름 보통
고도 2200ft 상공 구름 보통, 적란운.
전환 중
18일 01시부터 18일 03시까지 (UTC)
6kt
고도 2200ft 상공 구름 조금

TAF: MKJP 170515Z 1706/1806 35007KT 9999 FEW022 BECMG 1714/1716 14020KT SCT022 PROB40 TEMPO 1718/1722 SCT020 SCT022CB BECMG 1801/1803 35006KT FEW022

4,000개 이상의 공항 관측 자료 및 예보 (METAR 및 TAF 보고).

지도상에서 검색 가능한 기상관측소가 노란 점과 빨간 점으로 표시되어 있습니다.

기상관측소 명을 보려면 표시 위로 마우스를 이동하세요.

날씨 관측과 예보를 보려면 클릭하세요.

지도 변경 : 확대하려면 엑스 표시가 있는 녹색 버튼, 축소하려면 빼기 표시가 있는 녹색 버튼, 다음 페이지의 지도를 보려면 녹색 화살표를 클릭하세요.


METAR-TAF: